ACT        NSW        VIC        QLD        SA        WA        TAS        NT        INFO        CALC            by VK5ZD

Past Date/Time: (dd/mm/yyyy hh:mm or blank for current data)    

  Atmospheric Gas Attenuation - ITU Rec 676-11   --------------- dB/100km ---------------
WA Stations Date Time Temp RH % AH g/m3 Dew Point Wind Direction Speed kph Gust kph Barometer mB Rainfall Since 9am 24GHz 47GHz 76GHz 122GHz 134GHz 241GHz
Albany Airport 03/09 23:40 13.3 74 8.55 8.8 30 41 1007 0 19.5 25.7 39.6 103.9 97.9 336.6
Badgingarra 03/09 23:40 11.9 96 10.17 11.3 7 7 1013.1 1.2 23.1 29.1 47.4 124.8 122.7 423.4
Barimunya 03/09 23:40 24.7 23 5.21 2.2 9 13 1013.1 0 12.0 18.5 23.8 61.7 49.4 167.7
Barrow Island 03/09 23:40 22.5 69 13.78 16.5 35 43 1016.4 0 30.1 31.8 56.1 148.0 154.8 536.7
Bickley 03/09 23:40 12.3 80 8.69 9 22 35 1013.1 2.2 19.9 26.5 40.9 107.4 101.5 349.2
Boolgeeda 03/09 23:40 21 32 5.86 3.7 4 7 1013.1 0 13.5 20.1 26.9 70.1 58.6 199.6
Bridgetown 03/09 23:40 12.9 84 9.47 10.3 11 19 1010.2 1 21.5 27.5 43.7 114.9 111.1 382.8
Broome 03/09 23:40 23.8 90 19.36 22.1 7 11 1016.1 0 41.8 41.4 80.4 212.6 234.6 814.6
Bunbury 03/09 23:40 15.8 91 12.25 14.3 22 35 1012.2 0.6 27.3 31.4 54.0 142.3 145.8 504.4
Busselton Airport 03/09 23:40 15.7 71 9.5 10.5 35 50 1011.3 0.6 21.4 26.7 42.3 111.3 107.6 371.1
Cape Leeuwin 03/09 23:40 15.8 77 10.36 11.8 59 74 1009.1 1.4 23.3 28.0 45.7 120.3 118.8 410.3
Cape Naturaliste 03/09 23:40 14.9 78 9.94 11.1 48 65 1011.1 0.8 22.4 27.7 44.6 117.3 114.7 395.6
Carnarvon 03/09 23:40 17.7 78 11.77 13.8 22 30 1019.6 0 26.1 30.2 51.0 134.3 136.2 471.2
Christmas Creek 03/09 23:40 25.8 32 7.7 7.9 24 30 1014.9 0 17.2 21.5 31.4 82.0 74.7 256.9
Christmas Island 03/09 23:40 23.6 87 18.5 21.3 20 32 1015.6 0 40.0 39.9 76.4 202.0 221.6 769.4
Collie East 03/09 23:40 12.7 88 9.8 10.8 9 17 1013.1 1.2 22.2 28.2 45.4 119.3 116.2 400.8
Coondewanna 03/09 23:40 22 27 5.24 2.2 7 9 1013.1 0 12.2 19.0 24.6 64.0 51.3 174.2
Cunderdin Airport 03/09 23:40 12.6 94 10.4 11.7 13 17 1015.5 0 23.5 29.4 48.1 126.6 125.1 431.8
Curtin 03/09 23:40 22.9 55 11.24 13.4 17 20 1014.5 0 24.7 27.4 45.4 119.5 120.0 415.3
Dalwallinu 03/09 23:40 12 91 9.7 10.6 13 19 1016.8 0 22.0 28.4 45.5 119.6 116.3 400.6
Derby 03/09 23:40 22 61 11.84 14.1 11 15 1015 0 26.0 28.7 48.3 127.3 129.3 447.6
Dwellingup 03/09 23:40 12.2 94 10.14 11.3 24 50 1013.4 3 23.0 29.0 47.1 124.0 121.9 420.3
Eliwana Airport 03/09 23:40 22 30 5.82 3.6 9 13 1013.1 0 13.4 19.8 26.5 68.9 57.4 195.7
Esperance 03/09 23:40 15.3 68 8.88 9.4 26 35 1011.2 0.2 20.1 25.8 40.1 105.2 100.0 344.3
Esperance Airport 03/09 23:40 13.2 75 8.61 8.9 22 26 1011.8 0.2 19.6 26.0 40.1 105.2 99.2 341.2
Eucla 03/09 23:40 13.7 90 10.66 12.1 11 15 1013.4 0 24.0 29.4 48.5 127.6 126.8 437.9
Fitzroy Crossing 03/09 23:40 26.8 29 7.38 7.3 17 19 1013.9 0 16.5 20.8 29.9 78.2 70.3 241.6
Forrest 03/09 23:40 12.2 81 8.74 9 1013.6 0 20.0 26.6 41.2 108.2 102.4 352.2
Fortescue Dave Forrest 03/09 23:40 24.6 35 7.88 8.1 20 26 1014.6 0 17.6 22.0 32.4 84.8 77.8 267.6
Garden Island 03/09 23:40 15.6 92 12.23 14.3 30 39 1014.6 7.8 27.3 31.5 54.2 142.8 146.2 505.6
Geraldton Airport 03/09 23:40 15.2 93 12.07 14.1 4 9 1018.5 0.4 26.9 31.6 53.9 142.1 145.0 501.6
Gerangamete (Cfa) 04/09 01:30 6.9 87 6.7 4.9 15 17 1013.1 0 15.8 24.7 35.4 92.5 81.0 276.7
Giles* 04/09 01:10 23.6 25 5.32 2.4 13 19 1014.9 0 12.3 18.9 24.5 63.6 51.2 174.1
Gingin Airport 03/09 23:40 14 82 9.89 11 13 17 1015.7 3.2 22.3 28.1 45.1 118.6 115.8 399.3
Golden Grove 03/09 23:40 12.3 80 8.69 9 13 20 1013.1 0 19.9 26.5 40.9 107.4 101.5 349.2
Gooseberry Hill 03/09 23:40 13.9 83 9.95 11.1 22 32 1013.1 0 22.5 28.1 45.3 119.1 116.5 401.9
Gudai-Darri Mine 03/09 23:40 25.8 30 7.22 6.9 13 17 1013.1 0 16.2 20.8 29.7 77.7 69.4 238.4
Halls Creek 04/09 01:10 25.8 30 7.22 6.9 4 9 1015 0 16.2 20.9 29.8 77.9 69.5 238.7
Hopetoun North 03/09 23:40 14.1 86 10.44 11.8 15 20 1010.2 0 23.5 28.8 47.1 124.0 122.7 423.7
Iron Bridge Mine 03/09 23:40 22.4 46 9.13 10.2 11 17 1013.1 0 20.3 24.3 37.7 98.9 94.5 325.9
Jacup 03/09 23:40 11.6 86 8.94 9.3 20 35 1010.1 0 20.4 27.0 42.2 110.9 105.6 363.5
Jandakot 03/09 23:40 15.6 81 10.77 12.4 39 50 1014.8 1.8 24.1 29.0 47.8 125.9 125.4 433.0
Kalgoorlie-Boulder 03/09 23:40 10.6 68 6.64 4.9 6 6 1014.3 0 15.5 23.7 33.6 87.8 76.6 261.5
Kalumburu 04/09 01:10 20.9 94 17.12 19.9 0 0 1016.1 0 37.3 38.5 72.5 191.6 207.9 721.4
Karijini North 03/09 23:40 27 21 5.4 2.8 15 24 1014.9 0 12.4 18.3 23.7 61.7 50.0 170.0
Karnet 03/09 15:00 14.5 92 11.44 13.3 4 1013.1 4 25.6 30.5 51.3 135.2 136.6 472.1
Karratha 03/09 23:40 24 67 14.58 17.5 24 28 1016.1 0 31.7 32.6 58.4 154.1 162.8 564.7
Katanning Rs 03/09 23:40 11.3 80 8.16 8 22 30 1010.4 0 18.8 25.8 39.1 102.7 95.4 327.8
Koolan Island / Koolan Central 03/09 23:40 25.1 75 17.36 20.4 15 19 1013.1 0 37.5 36.9 69.5 183.7 199.7 693.4
Kununurra Airport 04/09 01:10 20.8 76 13.76 16.4 0 0 1015.5 0 30.2 32.4 57.2 150.9 157.9 547.3
Lake Grace 03/09 23:40 12.5 87 9.57 10.4 19 30 1012.6 0.8 21.7 27.9 44.5 116.9 113.3 390.4
Lancelin (Defence) 03/09 23:40 17.4 73 10.82 12.5 20 28 1016.1 1.2 24.1 28.5 47.0 123.7 123.3 425.9
Laverton 03/09 23:40 14.6 84 10.51 11.9 0 0 1014.3 0 23.6 28.9 47.3 124.5 123.3 425.7
Learmonth 03/09 23:40 17.6 74 11.1 12.9 17 20 1018.9 0 24.7 29.1 48.2 126.8 127.0 439.1
Legendre Island 03/09 23:40 22.5 76 15.18 18.2 20 20 1016.5 0 33.1 34.2 62.2 164.1 174.7 606.0
Leinster 03/09 23:40 15.5 51 6.74 5.4 7 9 1014.2 0 15.6 22.6 32.0 83.5 73.1 250.2
Leonora Airport 03/09 23:40 13.5 68 7.95 7.7 6 9 1014.5 0 18.2 25.0 37.4 98.1 90.4 310.3
Lombadina 03/09 23:40 23.8 79 16.99 19.9 7 9 1013.1 0 36.8 36.8 69.0 182.4 197.6 686.1
Mandora 03/09 23:40 20 96 16.59 19.3 9 9 1015.3 0 36.3 37.9 70.8 187.0 202.0 700.7
Mandurah 03/09 23:40 15.9 87 11.78 13.7 28 39 1013.9 0.8 26.3 30.6 51.9 136.8 139.0 480.7
Manjimup 03/09 23:40 11.9 90 9.53 10.3 28 50 1009.2 0.8 21.7 27.9 44.5 117.0 113.3 390.4
Marble Bar 03/09 23:40 27.1 27 6.99 6.5 11 15 1015.3 0 15.6 20.3 28.6 74.7 66.1 226.6
Mardie 03/09 23:40 22.5 60 11.98 14.4 17 22 1016.2 0 26.3 28.8 48.7 128.1 130.4 451.6
Meekatharra 03/09 23:40 16.1 52 7.13 6.3 7 9 1015.7 0 16.4 23.1 33.2 86.8 77.4 265.1
Millendon (Swan Valley) 03/09 23:40 14.8 77 9.75 10.8 6 7 1015 2.8 22.0 27.5 44.0 115.7 112.6 388.3
Morawa Airport 03/09 23:40 11.3 91 9.28 9.9 9 11 1018.2 0 21.2 28.0 44.2 116.0 111.5 383.9
Mount Keith 03/09 23:40 16.9 46 6.62 5.2 11 15 1013.1 0 15.3 22.0 30.9 80.8 70.4 240.7
Mount Magnet Airport 03/09 23:40 14 54 6.51 4.9 11 15 1016.9 0 15.1 22.7 31.8 83.0 71.9 245.6
Munglinup West 03/09 23:40 12.8 79 8.85 9.3 17 28 1011.4 0.2 20.2 26.5 41.2 108.3 102.9 354.1
Newdegate 03/09 23:40 12.6 89 9.85 10.8 22 37 1012.1 0 22.3 28.3 45.6 119.9 117.0 403.4
Newman Airport 03/09 23:40 23.4 22 4.63 0.5 13 15 1014.7 0 10.9 18.1 22.4 58.0 44.4 149.9
Norseman Airport 03/09 23:40 9.6 74 6.78 5.2 9 11 1013.4 0 15.9 24.1 34.5 90.3 79.3 271.0
North Island 03/09 23:40 17.4 79 11.71 13.7 22 28 1019 0 26.0 30.2 50.9 134.0 135.9 469.9
Onslow Airport 03/09 23:40 21.1 58 10.69 12.5 26 35 1017.6 0 23.6 27.2 44.4 116.8 116.0 400.9
Paraburdoo 03/09 23:40 23.1 25 5.17 2 9 13 1015.3 0 12.0 18.8 24.2 62.7 50.0 169.8
Pearce 03/09 23:40 14.3 82 10.07 11.3 15 19 1015.1 2.2 22.7 28.2 45.7 120.1 117.7 406.2
Perth 03/09 23:40 16.2 74 10.2 11.6 13 30 1015.1 1.4 22.9 27.9 45.1 118.6 116.6 402.6
Perth Airport 03/09 23:40 16.7 64 9.09 9.9 17 22 1014.6 1 20.5 25.9 40.3 105.9 101.2 348.6
Port Hedland 03/09 23:40 20.7 97 17.46 20.2 15 15 1015.7 0 38.1 39.2 74.3 196.4 213.7 741.8
Portable Btsa (Dfes) 03/09 23:30 14.7 77 9.69 10.8 4 6 1013.1 0 21.9 27.4 43.8 115.0 111.8 385.3
Portable Btsd (Dfes) 03/09 23:30 12.2 67 7.23 6.3 17 19 1013.1 0 16.7 24.2 35.1 92.0 82.4 282.3
Portable Btsf (Dfes) 03/09 23:00 20.9 49 8.92 10 7 9 1013.1 0 19.9 24.4 37.6 98.7 93.7 323.1
Portable Btsh (Dfes) 03/09 21:40 10.1 67 6.34 4.2 4 6 1013.1 0 14.9 23.3 32.6 85.1 73.1 249.5
Portable Btsj (Dfes) 03/09 23:30 14 93 11.22 12.9 19 24 1013.1 3.4 25.2 30.3 50.7 133.5 134.3 464.0
Portable Btsl (Dfes) 03/09 23:30 5.4 75 5.24 1.4 6 6 1013.1 0 12.7 22.8 30.1 78.5 63.1 213.6
Portable Btsm (Dfes) 03/09 23:30 20.6 34 6.08 4.2 2 4 1013.1 0 14.0 20.4 27.8 72.4 61.2 209.0
Portable Btsn (Dfes) 03/09 23:30 15 49 6.28 4.5 7 9 1013.1 0 14.6 22.0 30.4 79.5 68.0 232.2
Portable Btso (Dfes) 03/09 23:30 12.7 86 9.57 10.5 15 22 1013.1 0.8 21.7 27.8 44.4 116.7 113.0 389.6
Red Rocks Point 03/09 21:46 15.7 87 11.64 13.5 20 22 1015.7 0 26.0 30.5 51.6 135.8 137.6 475.6
Rocky Gully South 03/09 23:40 12.4 76 8.3 8.3 28 46 1013.1 0 19.0 25.8 39.3 103.1 96.2 330.5
Roebourne Airport 03/09 23:40 21.6 67 12.71 15.2 13 17 1016.3 0 27.9 30.3 52.2 137.6 141.8 491.2
Rottnest Island 03/09 23:40 15.9 81 10.97 12.6 43 54 1014.7 4.2 24.5 29.2 48.5 127.6 127.7 441.0
Salmon Gums Rs 03/09 23:40 10.7 81 7.96 7.6 7 11 1013.1 0 18.4 25.7 38.7 101.6 93.7 321.6
Shannon 03/09 23:40 12 91 9.7 10.6 19 30 1013.1 0.6 22.0 28.3 45.3 119.2 115.9 399.5
Shark Bay Airport 03/09 23:40 16.5 81 11.37 13.2 19 24 1019.3 0 25.4 29.9 50.0 131.7 132.7 458.7
Solomon Airport 03/09 23:40 22.6 30 6.03 4.2 2 6 1016.1 0 13.8 20.0 27.1 70.5 59.4 202.7
Southern Cross Airport 03/09 23:40 9.4 85 7.69 7 11 13 1015.2 0 17.8 25.8 38.4 100.5 91.8 314.7
Swanbourne 03/09 23:40 14.4 101 12.49 14.4 41 61 1013.1 0.6 27.9 32.4 56.1 148.0 152.2 526.6
Telfer 03/09 23:40 26.5 32 8.01 8.5 20 28 1013.9 0 17.8 21.7 32.1 84.0 77.4 266.4
Thevenard Island 03/09 23:40 21.1 65 11.98 14.3 35 44 1017.2 0 26.4 29.3 49.6 130.6 132.9 460.1
Troughton Island 04/09 01:10 24.3 85 18.81 21.6 7 11 1016.3 0 40.6 40.1 77.2 204.2 224.4 779.3
Truscott 04/09 01:10 22.2 88 17.28 20.1 0 0 1015.8 0 37.6 38.2 72.0 190.3 206.7 717.5
Walpole North 03/09 23:40 13 83 9.41 10.2 32 44 1006.6 0.2 21.4 27.2 43.2 113.7 109.8 378.4
Wandering 03/09 23:40 11.3 85 8.67 8.9 11 15 1013.1 2 19.9 26.7 41.4 108.6 102.6 352.8
Warburton 04/09 01:10 24.9 37 8.47 9.2 6 13 1012.6 0 18.8 22.7 34.2 89.7 84.0 289.4
West Angelas 03/09 23:40 22.8 30 6.1 4.3 11 13 1015.8 0 13.9 20.1 27.2 70.9 60.0 204.8
West Musgrave Airport 03/09 23:40 27.5 19 5.03 1.8 19 26 1013.1 0 11.6 17.7 22.5 58.3 46.0 156.1
Wiluna Airport 03/09 23:40 19 39 6.35 4.7 9 9 1015 0 14.6 21.2 29.3 76.4 65.6 224.2
Witchcliffe West 03/09 23:40 14.4 82 10.14 11.4 30 46 1010.8 0.6 22.9 28.2 45.7 120.2 118.2 407.7
Wyndham Airport 04/09 01:10 24.2 70 15.4 18.4 9 13 1015.6 0 33.4 33.9 61.7 163.0 173.8 603.2
Yampi Sound (Defence) 03/09 23:40 23.2 63 13.1 15.8 4 7 1018.8 0 28.6 30.5 52.9 139.4 144.4 500.4

Last Refresh: 04-Sep-2026 01:18:39

Bureau of Meteorology